sensor_id;sensor_type;location;lat;lon;timestamp;temperature;humidity
73576;DHT22;61859;49.204;8.140;2023-05-07T00:01:16;13.80;87.70
73576;DHT22;61859;49.204;8.140;2023-05-07T00:03:42;13.80;87.50
73576;DHT22;61859;49.204;8.140;2023-05-07T00:06:07;13.80;87.70
73576;DHT22;61859;49.204;8.140;2023-05-07T00:08:33;13.70;87.80
73576;DHT22;61859;49.204;8.140;2023-05-07T00:10:58;13.80;87.70
73576;DHT22;61859;49.204;8.140;2023-05-07T00:13:24;13.80;87.80
73576;DHT22;61859;49.204;8.140;2023-05-07T00:15:49;13.70;87.80
73576;DHT22;61859;49.204;8.140;2023-05-07T00:18:15;13.70;87.90
73576;DHT22;61859;49.204;8.140;2023-05-07T00:20:41;13.70;87.80
73576;DHT22;61859;49.204;8.140;2023-05-07T00:23:06;13.80;88.00
73576;DHT22;61859;49.204;8.140;2023-05-07T00:25:32;13.60;87.80
73576;DHT22;61859;49.204;8.140;2023-05-07T00:27:57;13.60;87.90
73576;DHT22;61859;49.204;8.140;2023-05-07T00:30:28;13.60;87.90
73576;DHT22;61859;49.204;8.140;2023-05-07T00:32:53;13.50;87.90
73576;DHT22;61859;49.204;8.140;2023-05-07T00:35:19;13.50;88.10
73576;DHT22;61859;49.204;8.140;2023-05-07T00:37:45;13.50;88.10
73576;DHT22;61859;49.204;8.140;2023-05-07T00:40:10;13.50;88.40
73576;DHT22;61859;49.204;8.140;2023-05-07T00:42:36;13.50;88.60
73576;DHT22;61859;49.204;8.140;2023-05-07T00:45:02;13.50;88.50
73576;DHT22;61859;49.204;8.140;2023-05-07T00:47:28;13.40;88.70
73576;DHT22;61859;49.204;8.140;2023-05-07T00:49:54;13.50;88.70
73576;DHT22;61859;49.204;8.140;2023-05-07T00:52:21;13.40;89.00
73576;DHT22;61859;49.204;8.140;2023-05-07T00:54:49;13.40;88.90
73576;DHT22;61859;49.204;8.140;2023-05-07T00:57:14;13.40;88.80
73576;DHT22;61859;49.204;8.140;2023-05-07T00:59:41;13.40;89.00
73576;DHT22;61859;49.204;8.140;2023-05-07T01:02:07;13.40;88.90
73576;DHT22;61859;49.204;8.140;2023-05-07T01:04:33;13.40;89.00
73576;DHT22;61859;49.204;8.140;2023-05-07T01:06:59;13.30;89.20
73576;DHT22;61859;49.204;8.140;2023-05-07T01:09:26;13.30;89.30
73576;DHT22;61859;49.204;8.140;2023-05-07T01:11:52;13.20;89.50
73576;DHT22;61859;49.204;8.140;2023-05-07T01:14:19;13.20;89.60
73576;DHT22;61859;49.204;8.140;2023-05-07T01:16:46;13.30;89.40
73576;DHT22;61859;49.204;8.140;2023-05-07T01:19:12;13.30;89.50
73576;DHT22;61859;49.204;8.140;2023-05-07T01:21:44;13.10;89.60
73576;DHT22;61859;49.204;8.140;2023-05-07T01:24:11;13.20;89.50
73576;DHT22;61859;49.204;8.140;2023-05-07T01:26:37;13.10;89.60
73576;DHT22;61859;49.204;8.140;2023-05-07T01:29:03;13.10;89.90
73576;DHT22;61859;49.204;8.140;2023-05-07T01:31:28;13.10;90.00
73576;DHT22;61859;49.204;8.140;2023-05-07T01:33:55;12.90;90.20
73576;DHT22;61859;49.204;8.140;2023-05-07T01:36:22;13.00;90.40
73576;DHT22;61859;49.204;8.140;2023-05-07T01:38:51;12.80;90.40
73576;DHT22;61859;49.204;8.140;2023-05-07T01:41:18;12.80;90.50
73576;DHT22;61859;49.204;8.140;2023-05-07T01:43:44;12.80;90.60
73576;DHT22;61859;49.204;8.140;2023-05-07T01:46:10;12.70;90.70
73576;DHT22;61859;49.204;8.140;2023-05-07T01:48:37;12.70;90.70
73576;DHT22;61859;49.204;8.140;2023-05-07T01:51:04;12.70;90.80
73576;DHT22;61859;49.204;8.140;2023-05-07T01:53:36;12.60;91.60
73576;DHT22;61859;49.204;8.140;2023-05-07T01:56:02;12.60;91.60
73576;DHT22;61859;49.204;8.140;2023-05-07T01:58:27;12.60;91.80
73576;DHT22;61859;49.204;8.140;2023-05-07T02:00:53;12.60;91.90
73576;DHT22;61859;49.204;8.140;2023-05-07T02:03:18;12.50;92.00
73576;DHT22;61859;49.204;8.140;2023-05-07T02:05:44;12.50;92.20
73576;DHT22;61859;49.204;8.140;2023-05-07T02:08:09;12.50;92.40
73576;DHT22;61859;49.204;8.140;2023-05-07T02:10:35;12.40;92.40
73576;DHT22;61859;49.204;8.140;2023-05-07T02:13:01;12.40;92.60
73576;DHT22;61859;49.204;8.140;2023-05-07T02:15:27;12.40;92.70
73576;DHT22;61859;49.204;8.140;2023-05-07T02:18:04;12.30;92.90
73576;DHT22;61859;49.204;8.140;2023-05-07T02:20:31;12.40;92.90
73576;DHT22;61859;49.204;8.140;2023-05-07T02:22:57;12.30;92.90
73576;DHT22;61859;49.204;8.140;2023-05-07T02:25:22;12.20;92.90
73576;DHT22;61859;49.204;8.140;2023-05-07T02:27:48;12.30;93.10
73576;DHT22;61859;49.204;8.140;2023-05-07T02:30:14;12.20;93.10
73576;DHT22;61859;49.204;8.140;2023-05-07T02:32:39;12.20;93.10
73576;DHT22;61859;49.204;8.140;2023-05-07T02:35:05;12.10;93.30
73576;DHT22;61859;49.204;8.140;2023-05-07T02:37:31;12.10;93.20
73576;DHT22;61859;49.204;8.140;2023-05-07T02:39:56;12.10;93.30
73576;DHT22;61859;49.204;8.140;2023-05-07T02:42:22;12.10;93.40
73576;DHT22;61859;49.204;8.140;2023-05-07T02:44:47;12.10;93.60
73576;DHT22;61859;49.204;8.140;2023-05-07T02:47:14;11.90;93.70
73576;DHT22;61859;49.204;8.140;2023-05-07T02:49:40;12.00;94.00
73576;DHT22;61859;49.204;8.140;2023-05-07T02:52:06;12.10;94.20
73576;DHT22;61859;49.204;8.140;2023-05-07T02:54:31;12.00;94.10
73576;DHT22;61859;49.204;8.140;2023-05-07T02:56:57;12.00;94.30
73576;DHT22;61859;49.204;8.140;2023-05-07T02:59:23;12.00;94.20
73576;DHT22;61859;49.204;8.140;2023-05-07T03:01:49;11.90;94.20
73576;DHT22;61859;49.204;8.140;2023-05-07T03:04:15;11.80;94.30
73576;DHT22;61859;49.204;8.140;2023-05-07T03:06:40;11.80;94.40
73576;DHT22;61859;49.204;8.140;2023-05-07T03:09:06;11.70;94.70
73576;DHT22;61859;49.204;8.140;2023-05-07T03:11:32;11.80;94.50
73576;DHT22;61859;49.204;8.140;2023-05-07T03:13:57;11.80;94.60
73576;DHT22;61859;49.204;8.140;2023-05-07T03:16:23;11.90;94.60
73576;DHT22;61859;49.204;8.140;2023-05-07T03:18:48;11.70;94.60
73576;DHT22;61859;49.204;8.140;2023-05-07T03:21:14;11.70;94.60
73576;DHT22;61859;49.204;8.140;2023-05-07T03:23:39;11.70;94.80
73576;DHT22;61859;49.204;8.140;2023-05-07T03:26:05;11.70;94.90
73576;DHT22;61859;49.204;8.140;2023-05-07T03:28:30;11.80;94.90
73576;DHT22;61859;49.204;8.140;2023-05-07T03:30:56;11.60;95.20
73576;DHT22;61859;49.204;8.140;2023-05-07T03:33:22;11.80;95.20
73576;DHT22;61859;49.204;8.140;2023-05-07T03:35:47;11.60;95.10
73576;DHT22;61859;49.204;8.140;2023-05-07T03:38:13;11.60;95.30
73576;DHT22;61859;49.204;8.140;2023-05-07T03:40:38;11.60;95.20
73576;DHT22;61859;49.204;8.140;2023-05-07T03:43:04;11.60;95.40
73576;DHT22;61859;49.204;8.140;2023-05-07T03:45:29;11.60;95.30
73576;DHT22;61859;49.204;8.140;2023-05-07T03:47:55;11.40;95.50
73576;DHT22;61859;49.204;8.140;2023-05-07T03:50:20;11.50;95.70
73576;DHT22;61859;49.204;8.140;2023-05-07T03:52:46;11.50;95.80
73576;DHT22;61859;49.204;8.140;2023-05-07T03:55:11;11.60;95.60
73576;DHT22;61859;49.204;8.140;2023-05-07T03:57:37;11.60;95.70
73576;DHT22;61859;49.204;8.140;2023-05-07T04:00:03;11.60;95.80
73576;DHT22;61859;49.204;8.140;2023-05-07T04:02:29;11.50;95.70
73576;DHT22;61859;49.204;8.140;2023-05-07T04:04:55;11.60;95.80
73576;DHT22;61859;49.204;8.140;2023-05-07T04:07:21;11.50;95.90
73576;DHT22;61859;49.204;8.140;2023-05-07T04:09:47;11.60;96.00
73576;DHT22;61859;49.204;8.140;2023-05-07T04:12:12;11.60;96.10
73576;DHT22;61859;49.204;8.140;2023-05-07T04:14:38;11.80;96.10
73576;DHT22;61859;49.204;8.140;2023-05-07T04:17:03;11.70;95.90
73576;DHT22;61859;49.204;8.140;2023-05-07T04:19:29;11.70;96.00
73576;DHT22;61859;49.204;8.140;2023-05-07T04:21:54;11.80;96.10
73576;DHT22;61859;49.204;8.140;2023-05-07T04:24:20;11.80;96.00
73576;DHT22;61859;49.204;8.140;2023-05-07T04:26:45;11.90;96.00
73576;DHT22;61859;49.204;8.140;2023-05-07T04:29:11;11.90;96.00
73576;DHT22;61859;49.204;8.140;2023-05-07T04:31:36;11.90;96.00
73576;DHT22;61859;49.204;8.140;2023-05-07T04:34:02;12.00;96.00
73576;DHT22;61859;49.204;8.140;2023-05-07T04:36:27;12.10;96.00
73576;DHT22;61859;49.204;8.140;2023-05-07T04:38:54;12.20;95.90
73576;DHT22;61859;49.204;8.140;2023-05-07T04:41:19;12.30;95.80
73576;DHT22;61859;49.204;8.140;2023-05-07T04:43:46;12.40;95.80
73576;DHT22;61859;49.204;8.140;2023-05-07T04:46:11;12.50;95.80
73576;DHT22;61859;49.204;8.140;2023-05-07T04:48:36;12.50;95.90
73576;DHT22;61859;49.204;8.140;2023-05-07T04:51:02;12.50;95.60
73576;DHT22;61859;49.204;8.140;2023-05-07T04:53:28;12.60;95.60
73576;DHT22;61859;49.204;8.140;2023-05-07T04:55:57;12.80;95.00
73576;DHT22;61859;49.204;8.140;2023-05-07T04:58:23;12.80;95.00
73576;DHT22;61859;49.204;8.140;2023-05-07T05:00:49;13.00;94.90
73576;DHT22;61859;49.204;8.140;2023-05-07T05:03:15;13.00;94.70
73576;DHT22;61859;49.204;8.140;2023-05-07T05:05:40;13.20;94.50
73576;DHT22;61859;49.204;8.140;2023-05-07T05:08:06;13.30;94.40
73576;DHT22;61859;49.204;8.140;2023-05-07T05:10:32;13.40;94.10
73576;DHT22;61859;49.204;8.140;2023-05-07T05:12:57;13.50;93.70
73576;DHT22;61859;49.204;8.140;2023-05-07T05:15:23;13.70;93.40
73576;DHT22;61859;49.204;8.140;2023-05-07T05:17:48;13.70;92.60
73576;DHT22;61859;49.204;8.140;2023-05-07T05:20:14;13.90;92.40
73576;DHT22;61859;49.204;8.140;2023-05-07T05:22:41;14.00;92.40
73576;DHT22;61859;49.204;8.140;2023-05-07T05:25:07;14.20;91.90
73576;DHT22;61859;49.204;8.140;2023-05-07T05:27:33;14.30;91.90
73576;DHT22;61859;49.204;8.140;2023-05-07T05:29:59;14.40;91.80
73576;DHT22;61859;49.204;8.140;2023-05-07T05:32:24;14.60;90.90
73576;DHT22;61859;49.204;8.140;2023-05-07T05:34:50;14.80;90.10
73576;DHT22;61859;49.204;8.140;2023-05-07T05:37:16;15.00;89.00
73576;DHT22;61859;49.204;8.140;2023-05-07T05:39:42;15.20;88.20
73576;DHT22;61859;49.204;8.140;2023-05-07T05:42:07;15.20;88.00
73576;DHT22;61859;49.204;8.140;2023-05-07T05:44:33;15.30;86.70
73576;DHT22;61859;49.204;8.140;2023-05-07T05:46:58;15.40;85.80
73576;DHT22;61859;49.204;8.140;2023-05-07T05:49:24;15.60;86.10
73576;DHT22;61859;49.204;8.140;2023-05-07T05:51:50;15.80;85.30
73576;DHT22;61859;49.204;8.140;2023-05-07T05:54:16;15.80;84.80
73576;DHT22;61859;49.204;8.140;2023-05-07T05:56:41;15.90;83.90
73576;DHT22;61859;49.204;8.140;2023-05-07T05:59:07;16.00;83.60
73576;DHT22;61859;49.204;8.140;2023-05-07T06:01:33;16.20;83.70
73576;DHT22;61859;49.204;8.140;2023-05-07T06:03:58;16.20;83.10
73576;DHT22;61859;49.204;8.140;2023-05-07T06:06:24;16.40;82.40
73576;DHT22;61859;49.204;8.140;2023-05-07T06:08:49;16.40;81.90
73576;DHT22;61859;49.204;8.140;2023-05-07T06:11:15;16.60;82.20
73576;DHT22;61859;49.204;8.140;2023-05-07T06:13:41;16.80;81.50
73576;DHT22;61859;49.204;8.140;2023-05-07T06:16:06;16.80;81.40
73576;DHT22;61859;49.204;8.140;2023-05-07T06:18:32;16.90;80.80
73576;DHT22;61859;49.204;8.140;2023-05-07T06:20:58;17.10;80.90
73576;DHT22;61859;49.204;8.140;2023-05-07T06:23:23;17.10;80.80
73576;DHT22;61859;49.204;8.140;2023-05-07T06:25:49;17.20;80.00
73576;DHT22;61859;49.204;8.140;2023-05-07T06:28:15;17.40;79.50
73576;DHT22;61859;49.204;8.140;2023-05-07T06:30:41;17.60;79.40
73576;DHT22;61859;49.204;8.140;2023-05-07T06:33:07;17.90;77.80
73576;DHT22;61859;49.204;8.140;2023-05-07T06:35:32;17.90;77.50
73576;DHT22;61859;49.204;8.140;2023-05-07T06:37:58;18.00;76.90
73576;DHT22;61859;49.204;8.140;2023-05-07T06:40:23;18.20;76.20
73576;DHT22;61859;49.204;8.140;2023-05-07T06:42:49;18.10;75.50
73576;DHT22;61859;49.204;8.140;2023-05-07T06:45:14;18.30;75.90
73576;DHT22;61859;49.204;8.140;2023-05-07T06:47:40;18.30;75.30
73576;DHT22;61859;49.204;8.140;2023-05-07T06:50:06;18.40;74.20
73576;DHT22;61859;49.204;8.140;2023-05-07T06:52:32;18.40;74.00
73576;DHT22;61859;49.204;8.140;2023-05-07T06:54:57;18.50;73.90
73576;DHT22;61859;49.204;8.140;2023-05-07T06:57:24;18.70;73.40
73576;DHT22;61859;49.204;8.140;2023-05-07T06:59:49;18.90;71.70
73576;DHT22;61859;49.204;8.140;2023-05-07T07:02:15;19.00;70.00
73576;DHT22;61859;49.204;8.140;2023-05-07T07:04:40;19.10;70.90
73576;DHT22;61859;49.204;8.140;2023-05-07T07:07:07;19.20;70.50
73576;DHT22;61859;49.204;8.140;2023-05-07T07:09:32;19.20;70.00
73576;DHT22;61859;49.204;8.140;2023-05-07T07:11:58;19.40;69.90
73576;DHT22;61859;49.204;8.140;2023-05-07T07:14:24;19.70;68.60
73576;DHT22;61859;49.204;8.140;2023-05-07T07:16:49;20.00;67.20
73576;DHT22;61859;49.204;8.140;2023-05-07T07:19:15;20.20;66.60
73576;DHT22;61859;49.204;8.140;2023-05-07T07:21:41;20.50;65.40
73576;DHT22;61859;49.204;8.140;2023-05-07T07:24:07;20.60;64.60
73576;DHT22;61859;49.204;8.140;2023-05-07T07:26:32;20.70;66.20
73576;DHT22;61859;49.204;8.140;2023-05-07T07:28:58;20.90;65.00
73576;DHT22;61859;49.204;8.140;2023-05-07T07:31:23;21.10;62.90
73576;DHT22;61859;49.204;8.140;2023-05-07T07:33:49;21.20;62.80
73576;DHT22;61859;49.204;8.140;2023-05-07T07:36:15;21.50;62.50
73576;DHT22;61859;49.204;8.140;2023-05-07T07:38:41;21.70;62.40
73576;DHT22;61859;49.204;8.140;2023-05-07T07:41:08;21.90;59.70
73576;DHT22;61859;49.204;8.140;2023-05-07T07:43:34;22.00;60.10
73576;DHT22;61859;49.204;8.140;2023-05-07T07:45:59;22.20;59.00
73576;DHT22;61859;49.204;8.140;2023-05-07T07:48:25;22.40;58.70
73576;DHT22;61859;49.204;8.140;2023-05-07T07:50:50;22.30;59.10
73576;DHT22;61859;49.204;8.140;2023-05-07T07:53:19;22.30;59.20
73576;DHT22;61859;49.204;8.140;2023-05-07T07:55:45;22.20;59.70
73576;DHT22;61859;49.204;8.140;2023-05-07T07:58:11;22.30;58.70
73576;DHT22;61859;49.204;8.140;2023-05-07T08:00:36;22.60;58.70
73576;DHT22;61859;49.204;8.140;2023-05-07T08:03:02;22.80;58.60
73576;DHT22;61859;49.204;8.140;2023-05-07T08:05:28;23.10;57.20
73576;DHT22;61859;49.204;8.140;2023-05-07T08:07:54;23.40;56.00
73576;DHT22;61859;49.204;8.140;2023-05-07T08:10:21;23.60;55.30
73576;DHT22;61859;49.204;8.140;2023-05-07T08:12:50;23.90;55.40
73576;DHT22;61859;49.204;8.140;2023-05-07T08:15:16;24.30;54.80
73576;DHT22;61859;49.204;8.140;2023-05-07T08:17:42;24.50;53.40
73576;DHT22;61859;49.204;8.140;2023-05-07T08:20:09;24.50;54.40
73576;DHT22;61859;49.204;8.140;2023-05-07T08:22:37;24.50;53.40
73576;DHT22;61859;49.204;8.140;2023-05-07T08:25:03;24.30;53.90
73576;DHT22;61859;49.204;8.140;2023-05-07T08:27:29;24.20;53.60
73576;DHT22;61859;49.204;8.140;2023-05-07T08:29:54;24.10;54.60
73576;DHT22;61859;49.204;8.140;2023-05-07T08:32:20;23.90;54.20
73576;DHT22;61859;49.204;8.140;2023-05-07T08:34:45;24.00;55.30
73576;DHT22;61859;49.204;8.140;2023-05-07T08:37:11;24.20;53.40
73576;DHT22;61859;49.204;8.140;2023-05-07T08:39:37;24.60;53.10
73576;DHT22;61859;49.204;8.140;2023-05-07T08:42:03;24.90;53.10
73576;DHT22;61859;49.204;8.140;2023-05-07T08:44:33;25.30;51.30
73576;DHT22;61859;49.204;8.140;2023-05-07T08:47:01;25.30;50.60
73576;DHT22;61859;49.204;8.140;2023-05-07T08:49:27;25.60;50.60
73576;DHT22;61859;49.204;8.140;2023-05-07T08:51:53;25.60;50.50
73576;DHT22;61859;49.204;8.140;2023-05-07T08:54:18;25.60;50.10
73576;DHT22;61859;49.204;8.140;2023-05-07T08:56:45;25.60;50.90
73576;DHT22;61859;49.204;8.140;2023-05-07T08:59:11;25.50;50.90
73576;DHT22;61859;49.204;8.140;2023-05-07T09:01:36;25.30;50.20
73576;DHT22;61859;49.204;8.140;2023-05-07T09:04:04;25.10;51.80
73576;DHT22;61859;49.204;8.140;2023-05-07T09:06:29;25.00;52.10
73576;DHT22;61859;49.204;8.140;2023-05-07T09:08:55;24.60;52.90
73576;DHT22;61859;49.204;8.140;2023-05-07T09:11:24;24.70;53.10
73576;DHT22;61859;49.204;8.140;2023-05-07T09:13:57;24.60;52.60
73576;DHT22;61859;49.204;8.140;2023-05-07T09:16:25;24.80;53.00
73576;DHT22;61859;49.204;8.140;2023-05-07T09:18:52;25.20;52.80
73576;DHT22;61859;49.204;8.140;2023-05-07T09:21:19;25.50;52.00
73576;DHT22;61859;49.204;8.140;2023-05-07T09:23:45;25.90;50.10
73576;DHT22;61859;49.204;8.140;2023-05-07T09:26:11;26.20;50.10
73576;DHT22;61859;49.204;8.140;2023-05-07T09:28:40;26.40;50.00
73576;DHT22;61859;49.204;8.140;2023-05-07T09:31:10;26.60;49.50
73576;DHT22;61859;49.204;8.140;2023-05-07T09:33:37;26.80;50.40
73576;DHT22;61859;49.204;8.140;2023-05-07T09:36:04;26.90;49.60
73576;DHT22;61859;49.204;8.140;2023-05-07T09:38:31;26.90;49.20
73576;DHT22;61859;49.204;8.140;2023-05-07T09:41:07;26.90;49.40
73576;DHT22;61859;49.204;8.140;2023-05-07T09:43:34;27.10;48.80
73576;DHT22;61859;49.204;8.140;2023-05-07T09:46:12;27.40;48.80
73576;DHT22;61859;49.204;8.140;2023-05-07T09:48:39;27.50;48.00
73576;DHT22;61859;49.204;8.140;2023-05-07T09:51:28;27.70;47.90
73576;DHT22;61859;49.204;8.140;2023-05-07T09:53:54;27.80;46.90
73576;DHT22;61859;49.204;8.140;2023-05-07T09:56:21;28.00;46.40
73576;DHT22;61859;49.204;8.140;2023-05-07T09:58:48;28.00;46.90
73576;DHT22;61859;49.204;8.140;2023-05-07T10:01:17;28.20;47.00
73576;DHT22;61859;49.204;8.140;2023-05-07T10:03:43;28.40;46.20
73576;DHT22;61859;49.204;8.140;2023-05-07T10:06:10;28.70;46.60
73576;DHT22;61859;49.204;8.140;2023-05-07T10:08:37;28.70;46.00
73576;DHT22;61859;49.204;8.140;2023-05-07T10:11:04;29.00;46.00
73576;DHT22;61859;49.204;8.140;2023-05-07T10:13:30;29.20;45.60
73576;DHT22;61859;49.204;8.140;2023-05-07T10:15:56;29.50;44.90
73576;DHT22;61859;49.204;8.140;2023-05-07T10:18:22;29.50;44.20
73576;DHT22;61859;49.204;8.140;2023-05-07T10:20:49;29.70;44.70
73576;DHT22;61859;49.204;8.140;2023-05-07T10:23:19;29.90;44.90
73576;DHT22;61859;49.204;8.140;2023-05-07T10:25:48;30.00;42.90
73576;DHT22;61859;49.204;8.140;2023-05-07T10:28:15;30.10;43.50
73576;DHT22;61859;49.204;8.140;2023-05-07T10:31:29;29.90;43.30
73576;DHT22;61859;49.204;8.140;2023-05-07T10:33:34;30.00;44.10
73576;DHT22;61859;49.204;8.140;2023-05-07T10:36:02;29.90;44.40
73576;DHT22;61859;49.204;8.140;2023-05-07T10:38:30;30.20;43.90
73576;DHT22;61859;49.204;8.140;2023-05-07T10:40:55;30.60;43.10
73576;DHT22;61859;49.204;8.140;2023-05-07T10:43:21;31.20;41.90
73576;DHT22;61859;49.204;8.140;2023-05-07T10:46:09;31.60;41.80
73576;DHT22;61859;49.204;8.140;2023-05-07T10:51:32;32.10;40.90
73576;DHT22;61859;49.204;8.140;2023-05-07T10:56:42;32.20;41.00
73576;DHT22;61859;49.204;8.140;2023-05-07T11:01:56;32.80;39.50
73576;DHT22;61859;49.204;8.140;2023-05-07T11:04:27;33.20;39.90
73576;DHT22;61859;49.204;8.140;2023-05-07T11:15:07;33.80;38.30
73576;DHT22;61859;49.204;8.140;2023-05-07T11:17:33;34.40;37.80
73576;DHT22;61859;49.204;8.140;2023-05-07T11:20:01;34.90;37.40
73576;DHT22;61859;49.204;8.140;2023-05-07T11:25:06;35.60;36.60
73576;DHT22;61859;49.204;8.140;2023-05-07T11:27:32;35.40;36.70
73576;DHT22;61859;49.204;8.140;2023-05-07T11:29:58;35.70;36.30
73576;DHT22;61859;49.204;8.140;2023-05-07T11:32:24;36.30;36.00
73576;DHT22;61859;49.204;8.140;2023-05-07T11:34:58;36.20;35.90
73576;DHT22;61859;49.204;8.140;2023-05-07T11:37:25;35.50;36.10
73576;DHT22;61859;49.204;8.140;2023-05-07T11:40:08;34.80;37.10
73576;DHT22;61859;49.204;8.140;2023-05-07T11:42:37;34.20;37.80
73576;DHT22;61859;49.204;8.140;2023-05-07T11:45:03;34.30;38.20
73576;DHT22;61859;49.204;8.140;2023-05-07T11:47:32;34.50;37.30
73576;DHT22;61859;49.204;8.140;2023-05-07T11:50:06;34.60;37.90
73576;DHT22;61859;49.204;8.140;2023-05-07T11:52:33;34.50;37.40
73576;DHT22;61859;49.204;8.140;2023-05-07T11:55:00;34.30;37.00
73576;DHT22;61859;49.204;8.140;2023-05-07T11:57:27;33.80;37.80
73576;DHT22;61859;49.204;8.140;2023-05-07T11:59:56;33.10;37.60
73576;DHT22;61859;49.204;8.140;2023-05-07T12:02:23;32.20;39.40
73576;DHT22;61859;49.204;8.140;2023-05-07T12:04:50;31.70;39.80
73576;DHT22;61859;49.204;8.140;2023-05-07T12:07:16;31.40;40.30
73576;DHT22;61859;49.204;8.140;2023-05-07T12:09:44;31.30;40.40
73576;DHT22;61859;49.204;8.140;2023-05-07T12:12:11;30.70;40.40
73576;DHT22;61859;49.204;8.140;2023-05-07T12:14:40;30.50;43.80
73576;DHT22;61859;49.204;8.140;2023-05-07T12:17:10;30.20;43.50
73576;DHT22;61859;49.204;8.140;2023-05-07T12:19:38;30.00;43.00
73576;DHT22;61859;49.204;8.140;2023-05-07T12:22:05;30.40;41.90
73576;DHT22;61859;49.204;8.140;2023-05-07T12:27:10;30.80;44.70
73576;DHT22;61859;49.204;8.140;2023-05-07T12:29:35;30.80;42.70
73576;DHT22;61859;49.204;8.140;2023-05-07T12:32:01;30.70;43.90
73576;DHT22;61859;49.204;8.140;2023-05-07T12:34:26;30.60;43.20
73576;DHT22;61859;49.204;8.140;2023-05-07T12:36:53;30.40;42.80
73576;DHT22;61859;49.204;8.140;2023-05-07T12:39:18;30.30;43.10
73576;DHT22;61859;49.204;8.140;2023-05-07T12:41:58;30.10;42.50
73576;DHT22;61859;49.204;8.140;2023-05-07T12:44:26;29.80;41.60
73576;DHT22;61859;49.204;8.140;2023-05-07T12:46:54;29.90;42.80
73576;DHT22;61859;49.204;8.140;2023-05-07T12:49:19;29.70;41.90
73576;DHT22;61859;49.204;8.140;2023-05-07T12:51:47;29.90;42.30
73576;DHT22;61859;49.204;8.140;2023-05-07T12:54:27;30.50;43.20
73576;DHT22;61859;49.204;8.140;2023-05-07T12:57:04;31.40;41.70
73576;DHT22;61859;49.204;8.140;2023-05-07T12:59:32;32.30;40.50
73576;DHT22;61859;49.204;8.140;2023-05-07T13:01:57;33.60;39.40
73576;DHT22;61859;49.204;8.140;2023-05-07T13:04:24;34.50;37.90
73576;DHT22;61859;49.204;8.140;2023-05-07T13:06:50;34.70;36.60
73576;DHT22;61859;49.204;8.140;2023-05-07T13:09:15;35.10;36.10
73576;DHT22;61859;49.204;8.140;2023-05-07T13:11:41;35.40;35.80
73576;DHT22;61859;49.204;8.140;2023-05-07T13:14:06;35.40;36.60
73576;DHT22;61859;49.204;8.140;2023-05-07T13:16:32;35.20;35.90
73576;DHT22;61859;49.204;8.140;2023-05-07T13:18:57;34.60;36.30
73576;DHT22;61859;49.204;8.140;2023-05-07T13:21:23;34.30;36.50
73576;DHT22;61859;49.204;8.140;2023-05-07T13:23:49;33.40;37.80
73576;DHT22;61859;49.204;8.140;2023-05-07T13:26:14;32.80;38.20
73576;DHT22;61859;49.204;8.140;2023-05-07T13:28:40;32.20;37.90
73576;DHT22;61859;49.204;8.140;2023-05-07T13:31:05;31.60;38.90
73576;DHT22;61859;49.204;8.140;2023-05-07T13:33:31;31.70;38.60
73576;DHT22;61859;49.204;8.140;2023-05-07T13:35:56;31.30;38.60
73576;DHT22;61859;49.204;8.140;2023-05-07T13:38:22;31.50;38.60
73576;DHT22;61859;49.204;8.140;2023-05-07T13:40:48;31.90;39.20
73576;DHT22;61859;49.204;8.140;2023-05-07T13:43:13;32.30;38.50
73576;DHT22;61859;49.204;8.140;2023-05-07T13:45:39;32.40;38.20
73576;DHT22;61859;49.204;8.140;2023-05-07T13:48:05;32.60;37.80
73576;DHT22;61859;49.204;8.140;2023-05-07T13:50:30;33.00;36.80
73576;DHT22;61859;49.204;8.140;2023-05-07T13:52:56;32.60;36.90
73576;DHT22;61859;49.204;8.140;2023-05-07T13:55:23;32.90;37.00
73576;DHT22;61859;49.204;8.140;2023-05-07T13:57:58;33.00;37.20
73576;DHT22;61859;49.204;8.140;2023-05-07T14:00:25;32.80;37.60
73576;DHT22;61859;49.204;8.140;2023-05-07T14:02:51;32.50;37.80
73576;DHT22;61859;49.204;8.140;2023-05-07T14:05:17;31.20;39.90
73576;DHT22;61859;49.204;8.140;2023-05-07T14:07:43;29.80;40.90
73576;DHT22;61859;49.204;8.140;2023-05-07T14:10:09;28.70;42.90
73576;DHT22;61859;49.204;8.140;2023-05-07T14:12:36;28.00;44.00
73576;DHT22;61859;49.204;8.140;2023-05-07T14:15:02;27.30;44.80
73576;DHT22;61859;49.204;8.140;2023-05-07T14:17:28;26.20;47.00
73576;DHT22;61859;49.204;8.140;2023-05-07T14:19:54;25.70;47.50
73576;DHT22;61859;49.204;8.140;2023-05-07T14:22:20;24.90;49.90
73576;DHT22;61859;49.204;8.140;2023-05-07T14:24:46;24.60;51.30
73576;DHT22;61859;49.204;8.140;2023-05-07T14:27:12;24.50;51.80
73576;DHT22;61859;49.204;8.140;2023-05-07T14:29:37;24.60;51.10
73576;DHT22;61859;49.204;8.140;2023-05-07T14:32:03;24.50;52.20
73576;DHT22;61859;49.204;8.140;2023-05-07T14:34:29;24.60;51.90
73576;DHT22;61859;49.204;8.140;2023-05-07T14:36:55;24.60;52.10
73576;DHT22;61859;49.204;8.140;2023-05-07T14:39:21;24.60;53.10
73576;DHT22;61859;49.204;8.140;2023-05-07T14:41:47;24.60;53.20
73576;DHT22;61859;49.204;8.140;2023-05-07T14:44:13;24.60;53.40
73576;DHT22;61859;49.204;8.140;2023-05-07T14:46:38;24.80;53.50
73576;DHT22;61859;49.204;8.140;2023-05-07T14:49:04;24.90;53.50
73576;DHT22;61859;49.204;8.140;2023-05-07T14:51:30;25.10;53.90
73576;DHT22;61859;49.204;8.140;2023-05-07T14:53:56;25.30;53.60
73576;DHT22;61859;49.204;8.140;2023-05-07T14:56:21;25.70;53.60
73576;DHT22;61859;49.204;8.140;2023-05-07T14:58:47;26.00;53.70
73576;DHT22;61859;49.204;8.140;2023-05-07T15:01:14;26.40;52.70
73576;DHT22;61859;49.204;8.140;2023-05-07T15:03:40;26.20;49.70
73576;DHT22;61859;49.204;8.140;2023-05-07T15:06:05;26.00;48.60
73576;DHT22;61859;49.204;8.140;2023-05-07T15:08:31;25.60;48.90
73576;DHT22;61859;49.204;8.140;2023-05-07T15:10:56;25.00;48.20
73576;DHT22;61859;49.204;8.140;2023-05-07T15:13:22;24.60;49.20
73576;DHT22;61859;49.204;8.140;2023-05-07T15:15:47;24.20;48.80
73576;DHT22;61859;49.204;8.140;2023-05-07T15:18:15;23.90;49.20
73576;DHT22;61859;49.204;8.140;2023-05-07T15:20:41;23.60;49.30
73576;DHT22;61859;49.204;8.140;2023-05-07T15:23:07;23.40;49.80
73576;DHT22;61859;49.204;8.140;2023-05-07T15:25:38;23.30;50.40
73576;DHT22;61859;49.204;8.140;2023-05-07T15:28:03;23.10;51.00
73576;DHT22;61859;49.204;8.140;2023-05-07T15:30:29;22.80;51.20
73576;DHT22;61859;49.204;8.140;2023-05-07T15:32:54;22.60;52.60
73576;DHT22;61859;49.204;8.140;2023-05-07T15:35:21;22.40;52.50
73576;DHT22;61859;49.204;8.140;2023-05-07T15:37:48;22.30;52.90
73576;DHT22;61859;49.204;8.140;2023-05-07T15:40:15;22.10;54.30
73576;DHT22;61859;49.204;8.140;2023-05-07T15:42:40;22.00;54.60
73576;DHT22;61859;49.204;8.140;2023-05-07T15:45:06;22.00;55.90
73576;DHT22;61859;49.204;8.140;2023-05-07T15:47:33;21.80;56.20